Fayette, AL (35555)

2:25 PM CDT on August 27, 2015 (GMT -0500)
Bevill State | | Change Station
CLOSE
Current Station
Personal Weather Station
Location: Fayette, AL
Elevation: 423 ft
Nearby Weather Stations

Elev 423 ft 33.73 °N, 87.82 °W | Updated 24 minutes ago

Clear
Clear
82.1 °F
Feels Like 84 °F
N
2.0
Wind Variable Wind from NNE
Gusts 10.0 mph

Today
High -- | Low -- °F
--% Chance of Precip.
Yesterday
High -- | Low -- °F
Precip. -- in
6:21 AM 7:23 PM
Waxing Gibbous, 94% visible
Pressure 30.03 in
Visibility 5.0 miles
Clouds Few 4700 ft
Heat Index 84 °F
Dew Point 65 °F
Humidity 57%
Rainfall 0.00 in
Snow Depth Not available.
UV 9 out of 12
Pollen 8.30 out of 12
Air Quality Not available.
Flu Activity Not available.
METAR KJFX 271915Z AUTO 00000KT 5SM HZ FEW047 32/19 A3003 RMK A02 P-128
Pressure 30.03 in
Visibility 5.0 miles
Clouds Few 4700 ft
Heat Index 84 °F
Dew Point 65 °F
Humidity 57%
Rainfall 0.00 in
Snow Depth Not available.
UV 9 out of 12
Pollen 8.30 out of 12
Air Quality Not available.
Flu Activity Not available.
METAR KJFX 271915Z AUTO 00000KT 5SM HZ FEW047 32/19 A3003 RMK A02 P-128

10-Day Weather Forecast

×

Almanac

Astronomy

Aug. 27, 2015 Rise Set
Actual Time
Civil Twilight
Nautical Twilight
Astronomical Twilight
Moon
Length of Visible Light
Length of Day
Tomorrow will be .
, % of the Moon is Illuminated

Today's Extremes

State Highs State Lows

Community

WunderPhotos

Upload Photos

1,850,195 photos uploaded!

WunderBlogs® & News

Nearby

Air Quality

  Air Quality AQ Index Pollutant
Not available.

Snow Depth

Station Depth Elevation

Earthquake Activity

City Distance Mag. Time & Date
Minimum magnitude displayed is 2.5.

Coastal Water Temperatures

Place Temperature

Stations

Nearby Weather Stations

Station Location Temp. Windchill Dew Point Humidity Wind Precip. Elev Updated Type